sensor_id;sensor_type;location;lat;lon;timestamp;pressure;altitude;pressure_sealevel;temperature;humidity
30714;BME280;17465;47.934;33.430;2024-01-30T00:02:11;57420.45;;;-140.43;97.81
30714;BME280;17465;47.934;33.430;2024-01-30T00:04:42;57467.05;;;-140.43;98.08
30714;BME280;17465;47.934;33.430;2024-01-30T00:07:12;57433.16;;;-140.43;98.45
30714;BME280;17465;47.934;33.430;2024-01-30T00:09:42;57444.81;;;-140.43;98.28
30714;BME280;17465;47.934;33.430;2024-01-30T00:12:12;57444.81;;;-140.43;98.28
30714;BME280;17465;47.934;33.430;2024-01-30T00:14:43;57420.45;;;-140.43;98.21
30714;BME280;17465;47.934;33.430;2024-01-30T00:17:13;57452.23;;;-140.43;98.13
30714;BME280;17465;47.934;33.430;2024-01-30T00:19:43;57452.23;;;-140.43;98.13
30714;BME280;17465;47.934;33.430;2024-01-30T00:22:14;57452.23;;;-140.43;98.70
30714;BME280;17465;47.934;33.430;2024-01-30T00:24:44;57452.23;;;-140.43;98.70
30714;BME280;17465;47.934;33.430;2024-01-30T00:27:14;57441.63;;;-140.43;98.18
30714;BME280;17465;47.934;33.430;2024-01-30T00:29:45;57441.63;;;-140.43;98.18
30714;BME280;17465;47.934;33.430;2024-01-30T00:32:15;57457.52;;;-140.43;98.42
30714;BME280;17465;47.934;33.430;2024-01-30T00:34:45;57428.92;;;-140.43;98.70
30714;BME280;17465;47.934;33.430;2024-01-30T00:37:16;57437.39;;;-140.43;98.39
30714;BME280;17465;47.934;33.430;2024-01-30T00:39:46;57462.82;;;-140.43;98.45
30714;BME280;17465;47.934;33.430;2024-01-30T00:42:16;57468.11;;;-140.43;98.74
30714;BME280;17465;47.934;33.430;2024-01-30T00:44:46;57467.05;;;-140.43;98.60
30714;BME280;17465;47.934;33.430;2024-01-30T00:47:16;57438.46;;;-140.43;98.64
30714;BME280;17465;47.934;33.430;2024-01-30T00:49:47;57438.46;;;-140.43;98.64
30714;BME280;17465;47.934;33.430;2024-01-30T00:52:17;57452.23;;;-140.43;98.40
30714;BME280;17465;47.934;33.430;2024-01-30T00:54:48;57449.05;;;-140.43;98.37
30714;BME280;17465;47.934;33.430;2024-01-30T00:57:18;57480.82;;;-140.43;98.60
30714;BME280;17465;47.934;33.430;2024-01-30T00:59:48;57452.23;;;-140.43;98.38
30714;BME280;17465;47.934;33.430;2024-01-30T01:02:19;57428.92;;;-140.43;98.70
30714;BME280;17465;47.934;33.430;2024-01-30T01:04:49;57428.92;;;-140.43;98.70
30714;BME280;17465;47.934;33.430;2024-01-30T01:07:19;57463.87;;;-140.43;98.78
30714;BME280;17465;47.934;33.430;2024-01-30T01:09:49;57456.46;;;-140.43;98.71
30714;BME280;17465;47.934;33.430;2024-01-30T01:12:20;57442.69;;;-140.43;98.51
30714;BME280;17465;47.934;33.430;2024-01-30T01:14:54;57426.80;;;-140.43;98.76
30714;BME280;17465;47.934;33.430;2024-01-30T01:17:38;57424.69;;;-140.43;98.38
30714;BME280;17465;47.934;33.430;2024-01-30T01:20:24;57462.82;;;-140.43;98.72
30714;BME280;17465;47.934;33.430;2024-01-30T01:22:56;57472.35;;;-140.43;98.75
30714;BME280;17465;47.934;33.430;2024-01-30T01:25:27;57472.35;;;-140.43;98.75
30714;BME280;17465;47.934;33.430;2024-01-30T01:27:57;57467.05;;;-140.43;98.37
30714;BME280;17465;47.934;33.430;2024-01-30T01:30:28;57458.58;;;-140.43;98.58
30714;BME280;17465;47.934;33.430;2024-01-30T01:32:58;57471.29;;;-140.43;98.59
30714;BME280;17465;47.934;33.430;2024-01-30T01:35:28;57441.63;;;-140.43;98.73
30714;BME280;17465;47.934;33.430;2024-01-30T01:37:59;57428.92;;;-140.43;98.80
30714;BME280;17465;47.934;33.430;2024-01-30T01:40:31;57443.75;;;-140.43;98.60
30714;BME280;17465;47.934;33.430;2024-01-30T01:43:03;57445.87;;;-140.43;98.66
30714;BME280;17465;47.934;33.430;2024-01-30T01:45:33;57443.75;;;-140.43;98.92
30714;BME280;17465;47.934;33.430;2024-01-30T01:48:04;57443.75;;;-140.43;98.92
30714;BME280;17465;47.934;33.430;2024-01-30T01:50:34;57439.52;;;-140.43;98.87
30714;BME280;17465;47.934;33.430;2024-01-30T01:53:07;57422.57;;;-140.43;98.71
30714;BME280;17465;47.934;33.430;2024-01-30T01:55:39;57441.63;;;-140.43;98.49
30714;BME280;17465;47.934;33.430;2024-01-30T01:58:10;57456.46;;;-140.43;98.63
30714;BME280;17465;47.934;33.430;2024-01-30T02:00:41;57456.46;;;-140.43;98.63
30714;BME280;17465;47.934;33.430;2024-01-30T02:03:11;57439.52;;;-140.43;98.58
30714;BME280;17465;47.934;33.430;2024-01-30T02:05:43;57453.28;;;-140.43;98.87
30714;BME280;17465;47.934;33.430;2024-01-30T02:08:13;57453.28;;;-140.43;98.87
30714;BME280;17465;47.934;33.430;2024-01-30T02:10:44;57438.46;;;-140.43;98.82
30714;BME280;17465;47.934;33.430;2024-01-30T02:13:14;57458.58;;;-140.43;98.80
30714;BME280;17465;47.934;33.430;2024-01-30T02:15:48;57458.58;;;-140.43;98.80
30714;BME280;17465;47.934;33.430;2024-01-30T02:18:16;57481.88;;;-140.43;98.67
30714;BME280;17465;47.934;33.430;2024-01-30T02:20:46;57443.75;;;-140.43;98.76
30714;BME280;17465;47.934;33.430;2024-01-30T02:23:20;57459.64;;;-140.43;98.89
30714;BME280;17465;47.934;33.430;2024-01-30T02:25:52;57460.70;;;-140.43;99.00
30714;BME280;17465;47.934;33.430;2024-01-30T02:28:23;57447.99;;;-140.43;98.70
30714;BME280;17465;47.934;33.430;2024-01-30T02:30:53;57443.75;;;-140.43;98.67
30714;BME280;17465;47.934;33.430;2024-01-30T02:33:23;57468.11;;;-140.43;98.59
30714;BME280;17465;47.934;33.430;2024-01-30T02:35:53;57443.75;;;-140.43;98.62
30714;BME280;17465;47.934;33.430;2024-01-30T02:38:24;57458.58;;;-140.43;98.52
30714;BME280;17465;47.934;33.430;2024-01-30T02:40:54;57473.41;;;-140.43;99.01
30714;BME280;17465;47.934;33.430;2024-01-30T02:43:25;57487.18;;;-140.43;99.23
30714;BME280;17465;47.934;33.430;2024-01-30T02:46:01;57463.87;;;-140.43;98.91
30714;BME280;17465;47.934;33.430;2024-01-30T02:48:27;57445.87;;;-140.43;98.81
30714;BME280;17465;47.934;33.430;2024-01-30T02:50:58;57468.11;;;-140.43;98.80
30714;BME280;17465;47.934;33.430;2024-01-30T02:53:28;57474.46;;;-140.43;98.76
30714;BME280;17465;47.934;33.430;2024-01-30T02:55:58;57474.46;;;-140.43;98.76
30714;BME280;17465;47.934;33.430;2024-01-30T02:58:29;57425.75;;;-140.43;98.75
30714;BME280;17465;47.934;33.430;2024-01-30T03:00:59;57450.11;;;-140.43;98.76
30714;BME280;17465;47.934;33.430;2024-01-30T03:03:30;57450.11;;;-140.43;98.64
30714;BME280;17465;47.934;33.430;2024-01-30T03:06:00;57450.11;;;-140.43;98.64
30714;BME280;17465;47.934;33.430;2024-01-30T03:08:30;57458.58;;;-140.43;98.76
30714;BME280;17465;47.934;33.430;2024-01-30T03:11:01;57434.22;;;-140.43;98.74
30714;BME280;17465;47.934;33.430;2024-01-30T03:13:31;57434.22;;;-140.43;98.74
30714;BME280;17465;47.934;33.430;2024-01-30T03:16:01;57438.46;;;-140.43;98.60
30714;BME280;17465;47.934;33.430;2024-01-30T03:18:32;57477.64;;;-140.43;98.64
30714;BME280;17465;47.934;33.430;2024-01-30T03:21:02;57465.99;;;-140.43;98.66
30714;BME280;17465;47.934;33.430;2024-01-30T03:23:33;57462.82;;;-140.43;98.61
30714;BME280;17465;47.934;33.430;2024-01-30T03:26:03;57477.64;;;-140.43;98.63
30714;BME280;17465;47.934;33.430;2024-01-30T03:28:33;57441.63;;;-140.43;98.71
30714;BME280;17465;47.934;33.430;2024-01-30T03:31:04;57441.63;;;-140.43;98.71
30714;BME280;17465;47.934;33.430;2024-01-30T03:33:34;57424.69;;;-140.43;98.85
30714;BME280;17465;47.934;33.430;2024-01-30T03:36:07;57457.52;;;-140.43;98.73
30714;BME280;17465;47.934;33.430;2024-01-30T03:38:37;57458.58;;;-140.43;98.85
30714;BME280;17465;47.934;33.430;2024-01-30T03:41:08;57476.58;;;-140.43;98.79
30714;BME280;17465;47.934;33.430;2024-01-30T03:43:39;57476.58;;;-140.43;98.79
30714;BME280;17465;47.934;33.430;2024-01-30T03:46:09;57449.05;;;-140.43;99.37
30714;BME280;17465;47.934;33.430;2024-01-30T03:48:41;57484.00;;;-140.43;99.22
30714;BME280;17465;47.934;33.430;2024-01-30T03:51:11;57468.11;;;-140.43;98.95
30714;BME280;17465;47.934;33.430;2024-01-30T03:53:45;57446.93;;;-140.43;99.11
30714;BME280;17465;47.934;33.430;2024-01-30T03:56:15;57446.93;;;-140.43;99.11
30714;BME280;17465;47.934;33.430;2024-01-30T03:58:46;57465.99;;;-140.43;99.00
30714;BME280;17465;47.934;33.430;2024-01-30T04:01:17;57465.99;;;-140.43;99.00
30714;BME280;17465;47.934;33.430;2024-01-30T04:03:47;57453.28;;;-140.43;98.93
30714;BME280;17465;47.934;33.430;2024-01-30T04:06:19;57438.46;;;-140.43;98.95
30714;BME280;17465;47.934;33.430;2024-01-30T04:08:49;57478.70;;;-140.43;99.05
30714;BME280;17465;47.934;33.430;2024-01-30T04:11:19;57478.70;;;-140.43;99.05
30714;BME280;17465;47.934;33.430;2024-01-30T04:13:50;57491.41;;;-140.43;99.03
30714;BME280;17465;47.934;33.430;2024-01-30T04:16:23;57491.41;;;-140.43;99.03
30714;BME280;17465;47.934;33.430;2024-01-30T04:18:54;57472.35;;;-140.43;99.12
30714;BME280;17465;47.934;33.430;2024-01-30T04:21:24;57472.35;;;-140.43;99.06
30714;BME280;17465;47.934;33.430;2024-01-30T04:23:54;57441.63;;;-140.43;99.02
30714;BME280;17465;47.934;33.430;2024-01-30T04:26:24;57464.93;;;-140.43;98.89
30714;BME280;17465;47.934;33.430;2024-01-30T04:28:55;57464.93;;;-140.43;98.89
30714;BME280;17465;47.934;33.430;2024-01-30T04:31:25;57434.22;;;-140.43;99.03
30714;BME280;17465;47.934;33.430;2024-01-30T04:33:55;57487.18;;;-140.43;99.33
30714;BME280;17465;47.934;33.430;2024-01-30T04:36:26;57484.00;;;-140.43;99.15
30714;BME280;17465;47.934;33.430;2024-01-30T04:38:56;57452.23;;;-140.43;99.22
30714;BME280;17465;47.934;33.430;2024-01-30T04:41:26;57473.41;;;-140.43;99.54
30714;BME280;17465;47.934;33.430;2024-01-30T04:43:59;57461.76;;;-140.43;99.55
30714;BME280;17465;47.934;33.430;2024-01-30T04:46:29;57493.53;;;-140.43;99.31
30714;BME280;17465;47.934;33.430;2024-01-30T04:49:00;57486.12;;;-140.43;98.95
30714;BME280;17465;47.934;33.430;2024-01-30T04:51:30;57459.64;;;-140.43;98.98
30714;BME280;17465;47.934;33.430;2024-01-30T04:54:00;57473.41;;;-140.43;99.12
30714;BME280;17465;47.934;33.430;2024-01-30T04:56:31;57473.41;;;-140.43;99.12
30714;BME280;17465;47.934;33.430;2024-01-30T04:59:06;57473.41;;;-140.43;98.98
30714;BME280;17465;47.934;33.430;2024-01-30T05:01:37;57473.41;;;-140.43;98.98
30714;BME280;17465;47.934;33.430;2024-01-30T05:04:10;57447.99;;;-140.43;99.08
30714;BME280;17465;47.934;33.430;2024-01-30T05:06:47;57456.46;;;-140.43;99.05
30714;BME280;17465;47.934;33.430;2024-01-30T05:09:18;57479.76;;;-140.43;99.13
30714;BME280;17465;47.934;33.430;2024-01-30T05:11:50;57496.71;;;-140.43;98.96
30714;BME280;17465;47.934;33.430;2024-01-30T05:14:20;57492.47;;;-140.43;99.11
30714;BME280;17465;47.934;33.430;2024-01-30T05:16:50;57492.47;;;-140.43;99.11
30714;BME280;17465;47.934;33.430;2024-01-30T05:19:21;57473.41;;;-140.43;99.13
30714;BME280;17465;47.934;33.430;2024-01-30T05:21:51;57473.41;;;-140.43;99.13
30714;BME280;17465;47.934;33.430;2024-01-30T05:24:21;57451.16;;;-140.43;99.00
30714;BME280;17465;47.934;33.430;2024-01-30T05:26:53;57465.99;;;-140.43;99.08
30714;BME280;17465;47.934;33.430;2024-01-30T05:29:24;57464.93;;;-140.43;99.15
30714;BME280;17465;47.934;33.430;2024-01-30T05:31:54;57472.35;;;-140.43;99.12
30714;BME280;17465;47.934;33.430;2024-01-30T05:34:24;57465.99;;;-140.43;99.12
30714;BME280;17465;47.934;33.430;2024-01-30T05:36:54;57444.81;;;-140.43;99.23
30714;BME280;17465;47.934;33.430;2024-01-30T05:39:25;57470.23;;;-140.43;99.08
30714;BME280;17465;47.934;33.430;2024-01-30T05:41:55;57452.23;;;-140.43;99.13
30714;BME280;17465;47.934;33.430;2024-01-30T05:44:25;57479.76;;;-140.43;99.18
30714;BME280;17465;47.934;33.430;2024-01-30T05:46:59;57482.94;;;-140.43;99.33
30714;BME280;17465;47.934;33.430;2024-01-30T05:49:30;57452.23;;;-140.43;99.18
30714;BME280;17465;47.934;33.430;2024-01-30T05:52:02;57462.82;;;-140.43;99.40
30714;BME280;17465;47.934;33.430;2024-01-30T05:54:32;57462.82;;;-140.43;99.40
30714;BME280;17465;47.934;33.430;2024-01-30T05:57:08;57464.93;;;-140.43;99.95
30714;BME280;17465;47.934;33.430;2024-01-30T05:59:38;57460.70;;;-140.43;99.24
30714;BME280;17465;47.934;33.430;2024-01-30T06:02:12;57460.70;;;-140.43;99.24
30714;BME280;17465;47.934;33.430;2024-01-30T06:04:42;57495.65;;;-140.43;99.36
30714;BME280;17465;47.934;33.430;2024-01-30T06:07:12;57473.41;;;-140.43;99.35
30714;BME280;17465;47.934;33.430;2024-01-30T06:09:43;57473.41;;;-140.43;99.35
30714;BME280;17465;47.934;33.430;2024-01-30T06:12:13;57471.29;;;-140.43;99.53
30714;BME280;17465;47.934;33.430;2024-01-30T06:14:43;57452.23;;;-140.43;99.60
30714;BME280;17465;47.934;33.430;2024-01-30T06:17:15;57452.23;;;-140.43;99.23
30714;BME280;17465;47.934;33.430;2024-01-30T06:19:46;57441.63;;;-140.43;99.16
30714;BME280;17465;47.934;33.430;2024-01-30T06:22:16;57453.28;;;-140.43;99.29
30714;BME280;17465;47.934;33.430;2024-01-30T06:24:47;57487.18;;;-140.43;99.18
30714;BME280;17465;47.934;33.430;2024-01-30T06:27:17;57458.58;;;-140.43;99.25
30714;BME280;17465;47.934;33.430;2024-01-30T06:29:47;57459.64;;;-140.43;98.90
30714;BME280;17465;47.934;33.430;2024-01-30T06:32:18;57481.88;;;-140.43;99.12
30714;BME280;17465;47.934;33.430;2024-01-30T06:34:48;57493.53;;;-140.43;99.36
30714;BME280;17465;47.934;33.430;2024-01-30T06:37:18;57493.53;;;-140.43;99.36
30714;BME280;17465;47.934;33.430;2024-01-30T06:39:49;57457.52;;;-140.43;98.83
30714;BME280;17465;47.934;33.430;2024-01-30T06:42:19;57445.87;;;-140.43;98.69
30714;BME280;17465;47.934;33.430;2024-01-30T06:44:50;57440.57;;;-140.43;98.65
30714;BME280;17465;47.934;33.430;2024-01-30T06:47:20;57459.64;;;-140.43;98.73
30714;BME280;17465;47.934;33.430;2024-01-30T06:49:53;57449.05;;;-140.43;98.70
30714;BME280;17465;47.934;33.430;2024-01-30T06:52:24;57473.41;;;-140.43;98.67
30714;BME280;17465;47.934;33.430;2024-01-30T06:54:55;57468.11;;;-140.43;98.41
30714;BME280;17465;47.934;33.430;2024-01-30T06:57:26;57440.57;;;-140.43;98.67
30714;BME280;17465;47.934;33.430;2024-01-30T06:59:56;57465.99;;;-140.43;98.45
30714;BME280;17465;47.934;33.430;2024-01-30T07:02:27;57437.39;;;-140.43;98.43
30714;BME280;17465;47.934;33.430;2024-01-30T07:04:57;57437.39;;;-140.43;98.43
30714;BME280;17465;47.934;33.430;2024-01-30T07:07:27;57461.76;;;-140.43;98.13
30714;BME280;17465;47.934;33.430;2024-01-30T07:09:58;57461.76;;;-140.43;98.13
30714;BME280;17465;47.934;33.430;2024-01-30T07:12:28;57440.57;;;-140.43;99.10
30714;BME280;17465;47.934;33.430;2024-01-30T07:15:00;57443.75;;;-140.43;97.97
30714;BME280;17465;47.934;33.430;2024-01-30T07:17:31;57425.75;;;-140.43;98.53
30714;BME280;17465;47.934;33.430;2024-01-30T07:20:01;57441.63;;;-140.43;98.15
30714;BME280;17465;47.934;33.430;2024-01-30T07:22:33;57443.75;;;-140.43;97.88
30714;BME280;17465;47.934;33.430;2024-01-30T07:25:04;57443.75;;;-140.43;97.88
30714;BME280;17465;47.934;33.430;2024-01-30T07:27:34;57460.70;;;-140.43;97.70
30714;BME280;17465;47.934;33.430;2024-01-30T07:30:12;57416.21;;;-140.43;98.12
30714;BME280;17465;47.934;33.430;2024-01-30T07:32:42;57437.39;;;-140.43;97.91
30714;BME280;17465;47.934;33.430;2024-01-30T07:35:15;57429.98;;;-140.43;97.57
30714;BME280;17465;47.934;33.430;2024-01-30T07:37:46;57456.46;;;-140.43;98.39
30714;BME280;17465;47.934;33.430;2024-01-30T07:40:17;57476.58;;;-140.43;98.48
30714;BME280;17465;47.934;33.430;2024-01-30T07:42:53;57451.16;;;-140.43;98.17
30714;BME280;17465;47.934;33.430;2024-01-30T07:45:23;57452.23;;;-140.43;98.01
30714;BME280;17465;47.934;33.430;2024-01-30T07:47:53;57431.04;;;-140.43;97.21
30714;BME280;17465;47.934;33.430;2024-01-30T07:50:24;57434.22;;;-140.43;97.70
30714;BME280;17465;47.934;33.430;2024-01-30T07:52:56;57434.22;;;-140.43;97.70
30714;BME280;17465;47.934;33.430;2024-01-30T07:55:27;57411.98;;;-140.43;98.60
30714;BME280;17465;47.934;33.430;2024-01-30T07:57:57;57435.28;;;-140.43;98.25
30714;BME280;17465;47.934;33.430;2024-01-30T08:00:29;57426.80;;;-140.43;98.05
30714;BME280;17465;47.934;33.430;2024-01-30T08:03:00;57426.80;;;-140.43;98.05
30714;BME280;17465;47.934;33.430;2024-01-30T08:05:34;57445.87;;;-140.43;98.05
30714;BME280;17465;47.934;33.430;2024-01-30T08:08:07;57413.04;;;-140.43;98.05
30714;BME280;17465;47.934;33.430;2024-01-30T08:10:37;57413.04;;;-140.43;98.05
30714;BME280;17465;47.934;33.430;2024-01-30T08:13:15;57428.92;;;-140.43;97.40
30714;BME280;17465;47.934;33.430;2024-01-30T08:15:45;57432.10;;;-140.43;97.20
30714;BME280;17465;47.934;33.430;2024-01-30T08:18:16;57432.10;;;-140.43;97.20
30714;BME280;17465;47.934;33.430;2024-01-30T08:20:46;57426.80;;;-140.43;97.73
30714;BME280;17465;47.934;33.430;2024-01-30T08:23:16;57415.16;;;-140.43;96.88
30714;BME280;17465;47.934;33.430;2024-01-30T08:25:50;57452.23;;;-140.43;95.92
30714;BME280;17465;47.934;33.430;2024-01-30T08:28:21;57396.09;;;-140.43;95.48
30714;BME280;17465;47.934;33.430;2024-01-30T08:30:51;57396.09;;;-140.43;95.48
30714;BME280;17465;47.934;33.430;2024-01-30T08:33:22;57371.73;;;-140.43;92.15
30714;BME280;17465;47.934;33.430;2024-01-30T08:35:56;57390.80;;;-140.43;90.93
30714;BME280;17465;47.934;33.430;2024-01-30T08:38:38;57390.80;;;-140.43;90.93
30714;BME280;17465;47.934;33.430;2024-01-30T08:41:10;57390.80;;;-140.43;88.58
30714;BME280;17465;47.934;33.430;2024-01-30T08:43:41;57370.68;;;-140.43;87.96
30714;BME280;17465;47.934;33.430;2024-01-30T08:46:13;57370.68;;;-140.43;87.96
30714;BME280;17465;47.934;33.430;2024-01-30T08:48:45;57383.38;;;-140.43;82.68
30714;BME280;17465;47.934;33.430;2024-01-30T08:51:23;57389.74;;;-140.43;80.62
30714;BME280;17465;47.934;33.430;2024-01-30T08:54:20;57400.33;;;-140.43;84.35
30714;BME280;17465;47.934;33.430;2024-01-30T08:56:55;57351.61;;;-140.43;82.60
30714;BME280;17465;47.934;33.430;2024-01-30T08:59:36;57351.61;;;-140.43;82.60
30714;BME280;17465;47.934;33.430;2024-01-30T09:02:31;57366.44;;;-140.43;81.89
30714;BME280;17465;47.934;33.430;2024-01-30T09:05:02;57366.44;;;-140.43;81.89
30714;BME280;17465;47.934;33.430;2024-01-30T09:07:33;57396.09;;;-140.43;81.60
30714;BME280;17465;47.934;33.430;2024-01-30T09:10:03;57368.55;;;-140.43;83.81
30714;BME280;17465;47.934;33.430;2024-01-30T09:12:34;57360.08;;;-140.43;84.83
30714;BME280;17465;47.934;33.430;2024-01-30T09:15:05;57372.79;;;-140.43;84.53
30714;BME280;17465;47.934;33.430;2024-01-30T09:17:36;57352.67;;;-140.43;82.48
30714;BME280;17465;47.934;33.430;2024-01-30T09:20:09;57352.67;;;-140.43;82.48
30714;BME280;17465;47.934;33.430;2024-01-30T09:22:40;57380.21;;;-140.43;85.64
30714;BME280;17465;47.934;33.430;2024-01-30T09:25:10;57356.91;;;-140.43;85.96
30714;BME280;17465;47.934;33.430;2024-01-30T09:27:48;57356.91;;;-140.43;85.96
30714;BME280;17465;47.934;33.430;2024-01-30T09:30:22;57349.49;;;-140.43;80.12
30714;BME280;17465;47.934;33.430;2024-01-30T09:32:53;57346.32;;;-140.43;82.46
30714;BME280;17465;47.934;33.430;2024-01-30T09:35:23;57364.32;;;-140.43;82.39
30714;BME280;17465;47.934;33.430;2024-01-30T09:37:54;57361.14;;;-140.43;83.76
30714;BME280;17465;47.934;33.430;2024-01-30T09:40:25;57361.14;;;-140.43;83.76
30714;BME280;17465;47.934;33.430;2024-01-30T09:42:55;57383.38;;;-140.43;81.25
30714;BME280;17465;47.934;33.430;2024-01-30T09:45:28;57338.90;;;-140.43;80.39
30714;BME280;17465;47.934;33.430;2024-01-30T09:48:01;57353.73;;;-140.43;79.76
30714;BME280;17465;47.934;33.430;2024-01-30T09:50:35;57375.97;;;-140.43;78.96
30714;BME280;17465;47.934;33.430;2024-01-30T09:53:11;57375.97;;;-140.43;78.96
30714;BME280;17465;47.934;33.430;2024-01-30T09:55:43;57367.50;;;-140.43;81.12
30714;BME280;17465;47.934;33.430;2024-01-30T09:58:14;57359.03;;;-140.43;77.24
30714;BME280;17465;47.934;33.430;2024-01-30T10:00:44;57345.26;;;-140.43;78.62
30714;BME280;17465;47.934;33.430;2024-01-30T10:03:17;57339.96;;;-140.43;78.24
30714;BME280;17465;47.934;33.430;2024-01-30T10:05:55;57335.73;;;-140.43;77.72
30714;BME280;17465;47.934;33.430;2024-01-30T10:08:26;57335.73;;;-140.43;77.72
30714;BME280;17465;47.934;33.430;2024-01-30T10:10:57;57363.26;;;-140.43;74.86
30714;BME280;17465;47.934;33.430;2024-01-30T10:13:29;57365.38;;;-140.43;76.37
30714;BME280;17465;47.934;33.430;2024-01-30T10:15:59;57363.26;;;-140.43;79.38
30714;BME280;17465;47.934;33.430;2024-01-30T10:18:30;57357.96;;;-140.43;78.39
30714;BME280;17465;47.934;33.430;2024-01-30T10:21:00;57365.38;;;-140.43;80.29
30714;BME280;17465;47.934;33.430;2024-01-30T10:23:31;57348.43;;;-140.43;79.56
30714;BME280;17465;47.934;33.430;2024-01-30T10:26:04;57368.55;;;-140.43;82.71
30714;BME280;17465;47.934;33.430;2024-01-30T10:28:35;57366.44;;;-140.43;82.48
30714;BME280;17465;47.934;33.430;2024-01-30T10:31:05;57365.38;;;-140.43;83.03
30714;BME280;17465;47.934;33.430;2024-01-30T10:33:36;57339.96;;;-140.43;82.73
30714;BME280;17465;47.934;33.430;2024-01-30T10:36:07;57363.26;;;-140.43;83.20
30714;BME280;17465;47.934;33.430;2024-01-30T10:38:39;57363.26;;;-140.43;83.20
30714;BME280;17465;47.934;33.430;2024-01-30T10:41:12;57366.44;;;-140.43;80.86
30714;BME280;17465;47.934;33.430;2024-01-30T10:43:50;57367.50;;;-140.43;81.69
30714;BME280;17465;47.934;33.430;2024-01-30T10:46:24;57339.96;;;-140.43;81.70
30714;BME280;17465;47.934;33.430;2024-01-30T10:48:58;57339.96;;;-140.43;81.70
30714;BME280;17465;47.934;33.430;2024-01-30T10:51:35;57381.27;;;-140.43;81.09
30714;BME280;17465;47.934;33.430;2024-01-30T10:54:21;57357.96;;;-140.43;80.22
30714;BME280;17465;47.934;33.430;2024-01-30T10:56:57;57332.55;;;-140.43;78.54
30714;BME280;17465;47.934;33.430;2024-01-30T10:59:30;57361.14;;;-140.43;77.43
30714;BME280;17465;47.934;33.430;2024-01-30T11:02:05;57359.03;;;-140.43;76.67
30714;BME280;17465;47.934;33.430;2024-01-30T11:04:43;57333.61;;;-140.43;74.01
30714;BME280;17465;47.934;33.430;2024-01-30T11:07:17;57333.61;;;-140.43;74.01
30714;BME280;17465;47.934;33.430;2024-01-30T11:10:01;57357.96;;;-140.43;75.37
30714;BME280;17465;47.934;33.430;2024-01-30T11:12:41;57357.96;;;-140.43;75.37
30714;BME280;17465;47.934;33.430;2024-01-30T11:15:13;57344.20;;;-140.43;74.60
30714;BME280;17465;47.934;33.430;2024-01-30T11:20:27;57360.08;;;-140.43;72.77
30714;BME280;17465;47.934;33.430;2024-01-30T11:22:59;57366.44;;;-140.43;74.33
30714;BME280;17465;47.934;33.430;2024-01-30T11:25:34;57349.49;;;-140.43;75.23
30714;BME280;17465;47.934;33.430;2024-01-30T11:28:05;57362.20;;;-140.43;74.52
30714;BME280;17465;47.934;33.430;2024-01-30T11:30:37;57377.03;;;-140.43;75.85
30714;BME280;17465;47.934;33.430;2024-01-30T11:33:11;57363.26;;;-140.43;77.31
30714;BME280;17465;47.934;33.430;2024-01-30T11:35:45;57377.03;;;-140.43;79.08
30714;BME280;17465;47.934;33.430;2024-01-30T11:38:21;57359.03;;;-140.43;76.52
30714;BME280;17465;47.934;33.430;2024-01-30T11:40:52;57359.03;;;-140.43;76.52
30714;BME280;17465;47.934;33.430;2024-01-30T11:43:23;57357.96;;;-140.43;73.87
30714;BME280;17465;47.934;33.430;2024-01-30T11:45:53;57363.26;;;-140.43;74.11
30714;BME280;17465;47.934;33.430;2024-01-30T11:48:24;57356.91;;;-140.43;73.24
30714;BME280;17465;47.934;33.430;2024-01-30T11:50:56;57349.49;;;-140.43;70.20
30714;BME280;17465;47.934;33.430;2024-01-30T11:53:27;57359.03;;;-140.43;73.40
30714;BME280;17465;47.934;33.430;2024-01-30T11:55:58;57346.32;;;-140.43;72.16
30714;BME280;17465;47.934;33.430;2024-01-30T11:58:46;57326.20;;;-140.43;71.84
30714;BME280;17465;47.934;33.430;2024-01-30T12:01:24;57326.20;;;-140.43;71.84
30714;BME280;17465;47.934;33.430;2024-01-30T12:03:52;57362.20;;;-140.43;70.74
30714;BME280;17465;47.934;33.430;2024-01-30T12:06:24;57380.21;;;-140.43;71.97
30714;BME280;17465;47.934;33.430;2024-01-30T12:08:59;57338.90;;;-140.43;71.47
30714;BME280;17465;47.934;33.430;2024-01-30T12:11:29;57362.20;;;-140.43;70.13
30714;BME280;17465;47.934;33.430;2024-01-30T12:14:04;57346.32;;;-140.43;71.35
30714;BME280;17465;47.934;33.430;2024-01-30T12:16:41;57391.86;;;-140.43;70.99
30714;BME280;17465;47.934;33.430;2024-01-30T12:19:07;57391.86;;;-140.43;70.99
30714;BME280;17465;47.934;33.430;2024-01-30T12:21:53;57363.26;;;-140.43;71.70
30714;BME280;17465;47.934;33.430;2024-01-30T12:24:20;57336.79;;;-140.43;71.21
30714;BME280;17465;47.934;33.430;2024-01-30T12:26:52;57354.79;;;-140.43;71.71
30714;BME280;17465;47.934;33.430;2024-01-30T12:29:22;57355.85;;;-140.43;71.66
30714;BME280;17465;47.934;33.430;2024-01-30T12:31:55;57355.85;;;-140.43;71.66
30714;BME280;17465;47.934;33.430;2024-01-30T12:34:26;57359.03;;;-140.43;72.55
30714;BME280;17465;47.934;33.430;2024-01-30T12:36:56;57368.55;;;-140.43;74.69
30714;BME280;17465;47.934;33.430;2024-01-30T12:39:30;57346.32;;;-140.43;76.53
30714;BME280;17465;47.934;33.430;2024-01-30T12:42:02;57364.32;;;-140.43;77.91
30714;BME280;17465;47.934;33.430;2024-01-30T12:44:34;57366.44;;;-140.43;78.51
30714;BME280;17465;47.934;33.430;2024-01-30T12:47:10;57366.44;;;-140.43;78.51
30714;BME280;17465;47.934;33.430;2024-01-30T12:49:46;57367.50;;;-140.43;82.17
30714;BME280;17465;47.934;33.430;2024-01-30T12:52:29;57382.32;;;-140.43;86.70
30714;BME280;17465;47.934;33.430;2024-01-30T12:55:06;57395.03;;;-140.43;87.51
30714;BME280;17465;47.934;33.430;2024-01-30T12:57:33;57380.21;;;-140.43;88.25